sensor_id;sensor_type;location;lat;lon;timestamp;temperature;humidity
14473;DHT22;7322;50.872;4.386;2023-01-05T00:01:43;16.90;99.90
14473;DHT22;7322;50.872;4.386;2023-01-05T00:04:10;16.90;99.90
14473;DHT22;7322;50.872;4.386;2023-01-05T00:06:37;16.90;99.90
14473;DHT22;7322;50.872;4.386;2023-01-05T00:09:07;16.90;99.90
14473;DHT22;7322;50.872;4.386;2023-01-05T00:11:36;16.90;99.90
14473;DHT22;7322;50.872;4.386;2023-01-05T00:14:21;16.90;99.90
14473;DHT22;7322;50.872;4.386;2023-01-05T00:17:08;16.90;99.90
14473;DHT22;7322;50.872;4.386;2023-01-05T00:19:53;16.90;99.90
14473;DHT22;7322;50.872;4.386;2023-01-05T00:22:42;16.90;99.90
14473;DHT22;7322;50.872;4.386;2023-01-05T00:25:11;16.90;99.90
14473;DHT22;7322;50.872;4.386;2023-01-05T00:27:41;16.90;99.90
14473;DHT22;7322;50.872;4.386;2023-01-05T00:30:10;16.90;99.90
14473;DHT22;7322;50.872;4.386;2023-01-05T00:32:38;16.90;99.90
14473;DHT22;7322;50.872;4.386;2023-01-05T00:35:07;16.90;99.90
14473;DHT22;7322;50.872;4.386;2023-01-05T00:37:34;16.90;99.90
14473;DHT22;7322;50.872;4.386;2023-01-05T00:40:03;16.90;99.90
14473;DHT22;7322;50.872;4.386;2023-01-05T00:42:30;16.80;99.90
14473;DHT22;7322;50.872;4.386;2023-01-05T00:44:58;16.90;99.90
14473;DHT22;7322;50.872;4.386;2023-01-05T00:47:25;16.90;99.90
14473;DHT22;7322;50.872;4.386;2023-01-05T00:49:52;16.90;99.90
14473;DHT22;7322;50.872;4.386;2023-01-05T00:52:20;16.90;99.90
14473;DHT22;7322;50.872;4.386;2023-01-05T00:54:47;16.90;99.90
14473;DHT22;7322;50.872;4.386;2023-01-05T00:57:14;16.90;99.90
14473;DHT22;7322;50.872;4.386;2023-01-05T00:59:41;16.90;99.90
14473;DHT22;7322;50.872;4.386;2023-01-05T01:02:09;16.90;99.90
14473;DHT22;7322;50.872;4.386;2023-01-05T01:04:37;16.90;99.90
14473;DHT22;7322;50.872;4.386;2023-01-05T01:07:05;16.90;99.90
14473;DHT22;7322;50.872;4.386;2023-01-05T01:09:32;16.90;99.90
14473;DHT22;7322;50.872;4.386;2023-01-05T01:11:59;16.90;99.90
14473;DHT22;7322;50.872;4.386;2023-01-05T01:14:27;16.90;99.90
14473;DHT22;7322;50.872;4.386;2023-01-05T01:16:53;16.90;99.90
14473;DHT22;7322;50.872;4.386;2023-01-05T01:19:24;16.90;99.90
14473;DHT22;7322;50.872;4.386;2023-01-05T01:21:51;16.90;99.90
14473;DHT22;7322;50.872;4.386;2023-01-05T01:24:22;16.90;99.90
14473;DHT22;7322;50.872;4.386;2023-01-05T01:26:49;16.90;99.90
14473;DHT22;7322;50.872;4.386;2023-01-05T01:29:16;16.90;99.90
14473;DHT22;7322;50.872;4.386;2023-01-05T01:31:44;16.90;99.90
14473;DHT22;7322;50.872;4.386;2023-01-05T01:34:11;16.90;99.90
14473;DHT22;7322;50.872;4.386;2023-01-05T01:36:40;16.90;99.90
14473;DHT22;7322;50.872;4.386;2023-01-05T01:39:07;16.90;99.90
14473;DHT22;7322;50.872;4.386;2023-01-05T01:41:35;16.90;99.90
14473;DHT22;7322;50.872;4.386;2023-01-05T01:44:43;16.80;99.90
14473;DHT22;7322;50.872;4.386;2023-01-05T01:46:50;16.90;99.90
14473;DHT22;7322;50.872;4.386;2023-01-05T01:49:17;16.90;99.90
14473;DHT22;7322;50.872;4.386;2023-01-05T01:51:47;16.90;99.90
14473;DHT22;7322;50.872;4.386;2023-01-05T01:54:16;16.90;99.90
14473;DHT22;7322;50.872;4.386;2023-01-05T01:56:48;16.90;99.90
14473;DHT22;7322;50.872;4.386;2023-01-05T01:59:16;16.80;99.90
14473;DHT22;7322;50.872;4.386;2023-01-05T02:01:43;16.90;99.90
14473;DHT22;7322;50.872;4.386;2023-01-05T02:04:11;16.90;99.90
14473;DHT22;7322;50.872;4.386;2023-01-05T02:06:38;16.80;99.90
14473;DHT22;7322;50.872;4.386;2023-01-05T02:09:06;16.90;99.90
14473;DHT22;7322;50.872;4.386;2023-01-05T02:11:42;16.90;99.90
14473;DHT22;7322;50.872;4.386;2023-01-05T02:14:17;16.90;99.90
14473;DHT22;7322;50.872;4.386;2023-01-05T02:16:56;16.90;99.90
14473;DHT22;7322;50.872;4.386;2023-01-05T02:22:46;16.90;99.90
14473;DHT22;7322;50.872;4.386;2023-01-05T02:25:42;16.90;99.90
14473;DHT22;7322;50.872;4.386;2023-01-05T02:28:20;16.90;99.90
14473;DHT22;7322;50.872;4.386;2023-01-05T02:31:03;16.90;99.90
14473;DHT22;7322;50.872;4.386;2023-01-05T02:33:49;16.90;99.90
14473;DHT22;7322;50.872;4.386;2023-01-05T02:36:25;16.90;99.90
14473;DHT22;7322;50.872;4.386;2023-01-05T02:38:57;16.90;99.90
14473;DHT22;7322;50.872;4.386;2023-01-05T02:41:31;16.90;99.90
14473;DHT22;7322;50.872;4.386;2023-01-05T02:43:59;16.90;99.90
14473;DHT22;7322;50.872;4.386;2023-01-05T02:46:28;16.90;99.90
14473;DHT22;7322;50.872;4.386;2023-01-05T02:48:57;16.90;99.90
14473;DHT22;7322;50.872;4.386;2023-01-05T02:51:28;16.90;99.90
14473;DHT22;7322;50.872;4.386;2023-01-05T02:53:59;16.90;99.90
14473;DHT22;7322;50.872;4.386;2023-01-05T02:56:31;16.90;99.90
14473;DHT22;7322;50.872;4.386;2023-01-05T02:59:03;16.90;99.90
14473;DHT22;7322;50.872;4.386;2023-01-05T03:01:36;16.90;99.90
14473;DHT22;7322;50.872;4.386;2023-01-05T03:04:07;16.90;99.90
14473;DHT22;7322;50.872;4.386;2023-01-05T03:06:40;16.90;99.90
14473;DHT22;7322;50.872;4.386;2023-01-05T03:09:12;16.90;99.90
14473;DHT22;7322;50.872;4.386;2023-01-05T03:11:44;16.90;99.90
14473;DHT22;7322;50.872;4.386;2023-01-05T03:14:35;16.90;99.90
14473;DHT22;7322;50.872;4.386;2023-01-05T03:17:07;16.90;99.90
14473;DHT22;7322;50.872;4.386;2023-01-05T03:19:35;16.90;99.90
14473;DHT22;7322;50.872;4.386;2023-01-05T03:22:10;16.90;99.90
14473;DHT22;7322;50.872;4.386;2023-01-05T03:24:55;16.90;99.90
14473;DHT22;7322;50.872;4.386;2023-01-05T03:27:41;16.90;99.90
14473;DHT22;7322;50.872;4.386;2023-01-05T03:30:31;16.90;99.90
14473;DHT22;7322;50.872;4.386;2023-01-05T03:33:27;16.90;99.90
14473;DHT22;7322;50.872;4.386;2023-01-05T03:36:15;16.90;99.90
14473;DHT22;7322;50.872;4.386;2023-01-05T03:38:45;16.90;99.90
14473;DHT22;7322;50.872;4.386;2023-01-05T03:41:14;16.90;99.90
14473;DHT22;7322;50.872;4.386;2023-01-05T03:43:42;16.90;99.90
14473;DHT22;7322;50.872;4.386;2023-01-05T03:46:10;16.90;99.90
14473;DHT22;7322;50.872;4.386;2023-01-05T03:48:40;16.90;99.90
14473;DHT22;7322;50.872;4.386;2023-01-05T03:51:08;16.90;99.90
14473;DHT22;7322;50.872;4.386;2023-01-05T03:53:35;16.90;99.90
14473;DHT22;7322;50.872;4.386;2023-01-05T03:56:02;16.90;99.90
14473;DHT22;7322;50.872;4.386;2023-01-05T03:58:30;16.90;99.90
14473;DHT22;7322;50.872;4.386;2023-01-05T04:00:57;16.90;99.90
14473;DHT22;7322;50.872;4.386;2023-01-05T04:03:24;16.90;99.90
14473;DHT22;7322;50.872;4.386;2023-01-05T04:05:54;16.90;99.90
14473;DHT22;7322;50.872;4.386;2023-01-05T04:08:21;16.90;99.90
14473;DHT22;7322;50.872;4.386;2023-01-05T04:10:49;16.90;99.90
14473;DHT22;7322;50.872;4.386;2023-01-05T04:13:19;16.90;99.90
14473;DHT22;7322;50.872;4.386;2023-01-05T04:15:47;16.90;99.90
14473;DHT22;7322;50.872;4.386;2023-01-05T04:18:14;16.90;99.90
14473;DHT22;7322;50.872;4.386;2023-01-05T04:20:41;16.90;99.90
14473;DHT22;7322;50.872;4.386;2023-01-05T04:23:10;16.90;99.90
14473;DHT22;7322;50.872;4.386;2023-01-05T04:25:37;16.90;99.90
14473;DHT22;7322;50.872;4.386;2023-01-05T04:28:04;16.90;99.90
14473;DHT22;7322;50.872;4.386;2023-01-05T04:30:31;16.90;99.90
14473;DHT22;7322;50.872;4.386;2023-01-05T04:32:58;16.90;99.90
14473;DHT22;7322;50.872;4.386;2023-01-05T04:35:24;16.90;99.90
14473;DHT22;7322;50.872;4.386;2023-01-05T04:37:52;16.90;99.90
14473;DHT22;7322;50.872;4.386;2023-01-05T04:40:22;16.90;99.90
14473;DHT22;7322;50.872;4.386;2023-01-05T04:42:49;16.90;99.90
14473;DHT22;7322;50.872;4.386;2023-01-05T04:45:16;16.90;99.90
14473;DHT22;7322;50.872;4.386;2023-01-05T04:47:43;16.80;99.90
14473;DHT22;7322;50.872;4.386;2023-01-05T04:50:10;16.80;99.90
14473;DHT22;7322;50.872;4.386;2023-01-05T04:52:37;16.80;99.90
14473;DHT22;7322;50.872;4.386;2023-01-05T04:55:05;16.80;99.90
14473;DHT22;7322;50.872;4.386;2023-01-05T04:57:33;16.90;99.90
14473;DHT22;7322;50.872;4.386;2023-01-05T05:00:01;16.90;99.90
14473;DHT22;7322;50.872;4.386;2023-01-05T05:02:28;16.90;99.90
14473;DHT22;7322;50.872;4.386;2023-01-05T05:04:55;16.90;99.90
14473;DHT22;7322;50.872;4.386;2023-01-05T05:07:22;16.80;99.90
14473;DHT22;7322;50.872;4.386;2023-01-05T05:09:49;16.90;99.90
14473;DHT22;7322;50.872;4.386;2023-01-05T05:12:16;16.90;99.90
14473;DHT22;7322;50.872;4.386;2023-01-05T05:14:47;16.90;99.90
14473;DHT22;7322;50.872;4.386;2023-01-05T05:17:14;16.90;99.90
14473;DHT22;7322;50.872;4.386;2023-01-05T05:19:41;16.80;99.90
14473;DHT22;7322;50.872;4.386;2023-01-05T05:22:08;16.90;99.90
14473;DHT22;7322;50.872;4.386;2023-01-05T05:24:35;16.90;99.90
14473;DHT22;7322;50.872;4.386;2023-01-05T05:27:02;16.90;99.90
14473;DHT22;7322;50.872;4.386;2023-01-05T05:29:31;16.90;99.90
14473;DHT22;7322;50.872;4.386;2023-01-05T05:31:59;16.90;99.90
14473;DHT22;7322;50.872;4.386;2023-01-05T05:34:27;16.80;99.90
14473;DHT22;7322;50.872;4.386;2023-01-05T05:36:54;16.90;99.90
14473;DHT22;7322;50.872;4.386;2023-01-05T05:39:21;16.90;99.90
14473;DHT22;7322;50.872;4.386;2023-01-05T05:41:48;16.90;99.90
14473;DHT22;7322;50.872;4.386;2023-01-05T05:44:16;16.90;99.90
14473;DHT22;7322;50.872;4.386;2023-01-05T05:46:43;16.90;99.90
14473;DHT22;7322;50.872;4.386;2023-01-05T05:49:12;16.90;99.90
14473;DHT22;7322;50.872;4.386;2023-01-05T05:51:39;16.80;99.90
14473;DHT22;7322;50.872;4.386;2023-01-05T05:54:06;16.90;99.90
14473;DHT22;7322;50.872;4.386;2023-01-05T05:56:33;16.90;99.90
14473;DHT22;7322;50.872;4.386;2023-01-05T05:59:00;16.90;99.90
14473;DHT22;7322;50.872;4.386;2023-01-05T06:01:27;17.00;99.90
14473;DHT22;7322;50.872;4.386;2023-01-05T06:03:54;17.20;99.90
14473;DHT22;7322;50.872;4.386;2023-01-05T06:06:23;17.40;99.90
14473;DHT22;7322;50.872;4.386;2023-01-05T06:08:50;17.60;99.90
14473;DHT22;7322;50.872;4.386;2023-01-05T06:11:17;17.80;99.90
14473;DHT22;7322;50.872;4.386;2023-01-05T06:13:44;18.00;99.90
14473;DHT22;7322;50.872;4.386;2023-01-05T06:16:13;18.20;99.90
14473;DHT22;7322;50.872;4.386;2023-01-05T06:18:40;18.40;99.90
14473;DHT22;7322;50.872;4.386;2023-01-05T06:21:07;18.50;99.90
14473;DHT22;7322;50.872;4.386;2023-01-05T06:23:37;18.60;99.90
14473;DHT22;7322;50.872;4.386;2023-01-05T06:26:05;18.70;99.90
14473;DHT22;7322;50.872;4.386;2023-01-05T06:28:31;18.80;99.90
14473;DHT22;7322;50.872;4.386;2023-01-05T06:30:58;18.80;99.90
14473;DHT22;7322;50.872;4.386;2023-01-05T06:33:26;18.90;99.90
14473;DHT22;7322;50.872;4.386;2023-01-05T06:35:53;18.90;99.90
14473;DHT22;7322;50.872;4.386;2023-01-05T06:38:23;18.90;99.90
14473;DHT22;7322;50.872;4.386;2023-01-05T06:40:52;18.90;99.90
14473;DHT22;7322;50.872;4.386;2023-01-05T06:43:19;18.90;99.90
14473;DHT22;7322;50.872;4.386;2023-01-05T06:45:46;18.90;99.90
14473;DHT22;7322;50.872;4.386;2023-01-05T06:48:13;19.00;99.90
14473;DHT22;7322;50.872;4.386;2023-01-05T06:50:40;18.90;99.90
14473;DHT22;7322;50.872;4.386;2023-01-05T06:53:07;18.90;99.90
14473;DHT22;7322;50.872;4.386;2023-01-05T06:55:34;18.90;99.90
14473;DHT22;7322;50.872;4.386;2023-01-05T06:58:02;18.90;99.90
14473;DHT22;7322;50.872;4.386;2023-01-05T07:00:29;18.90;99.90
14473;DHT22;7322;50.872;4.386;2023-01-05T07:02:56;18.90;99.90
14473;DHT22;7322;50.872;4.386;2023-01-05T07:05:23;18.90;99.90
14473;DHT22;7322;50.872;4.386;2023-01-05T07:07:50;18.80;99.90
14473;DHT22;7322;50.872;4.386;2023-01-05T07:10:17;18.80;99.90
14473;DHT22;7322;50.872;4.386;2023-01-05T07:12:44;18.80;99.90
14473;DHT22;7322;50.872;4.386;2023-01-05T07:15:12;18.80;99.90
14473;DHT22;7322;50.872;4.386;2023-01-05T07:17:39;18.80;99.90
14473;DHT22;7322;50.872;4.386;2023-01-05T07:20:07;18.80;99.90
14473;DHT22;7322;50.872;4.386;2023-01-05T07:22:34;18.80;99.90
14473;DHT22;7322;50.872;4.386;2023-01-05T07:25:01;18.70;99.90
14473;DHT22;7322;50.872;4.386;2023-01-05T07:27:28;18.60;99.90
14473;DHT22;7322;50.872;4.386;2023-01-05T07:29:55;18.60;99.90
14473;DHT22;7322;50.872;4.386;2023-01-05T07:32:23;18.60;99.90
14473;DHT22;7322;50.872;4.386;2023-01-05T07:34:50;18.60;99.90
14473;DHT22;7322;50.872;4.386;2023-01-05T07:37:17;18.60;99.90
14473;DHT22;7322;50.872;4.386;2023-01-05T07:39:44;18.50;99.90
14473;DHT22;7322;50.872;4.386;2023-01-05T07:42:10;18.60;99.90
14473;DHT22;7322;50.872;4.386;2023-01-05T07:44:37;18.50;99.90
14473;DHT22;7322;50.872;4.386;2023-01-05T07:47:05;18.50;99.90
14473;DHT22;7322;50.872;4.386;2023-01-05T07:49:35;18.40;99.90
14473;DHT22;7322;50.872;4.386;2023-01-05T07:52:02;18.40;99.90
14473;DHT22;7322;50.872;4.386;2023-01-05T07:54:29;18.40;99.90
14473;DHT22;7322;50.872;4.386;2023-01-05T07:56:56;18.40;99.90
14473;DHT22;7322;50.872;4.386;2023-01-05T07:59:23;18.40;99.90
14473;DHT22;7322;50.872;4.386;2023-01-05T08:01:51;18.30;99.90
14473;DHT22;7322;50.872;4.386;2023-01-05T08:04:19;18.40;99.90
14473;DHT22;7322;50.872;4.386;2023-01-05T08:06:49;18.40;99.90
14473;DHT22;7322;50.872;4.386;2023-01-05T08:09:17;18.30;99.90
14473;DHT22;7322;50.872;4.386;2023-01-05T08:12:01;18.30;99.90
14473;DHT22;7322;50.872;4.386;2023-01-05T08:14:28;18.30;99.90
14473;DHT22;7322;50.872;4.386;2023-01-05T08:16:54;18.30;99.90
14473;DHT22;7322;50.872;4.386;2023-01-05T08:19:21;18.30;99.90
14473;DHT22;7322;50.872;4.386;2023-01-05T08:21:50;18.30;99.90
14473;DHT22;7322;50.872;4.386;2023-01-05T08:24:17;18.30;99.90
14473;DHT22;7322;50.872;4.386;2023-01-05T08:26:44;18.30;99.90
14473;DHT22;7322;50.872;4.386;2023-01-05T08:29:11;18.30;99.90
14473;DHT22;7322;50.872;4.386;2023-01-05T08:31:40;18.30;99.90
14473;DHT22;7322;50.872;4.386;2023-01-05T08:34:07;18.30;99.90
14473;DHT22;7322;50.872;4.386;2023-01-05T08:36:36;18.20;99.90
14473;DHT22;7322;50.872;4.386;2023-01-05T08:39:09;18.20;99.90
14473;DHT22;7322;50.872;4.386;2023-01-05T08:41:39;18.20;99.90
14473;DHT22;7322;50.872;4.386;2023-01-05T08:44:11;18.20;99.90
14473;DHT22;7322;50.872;4.386;2023-01-05T08:46:39;18.20;99.90
14473;DHT22;7322;50.872;4.386;2023-01-05T08:49:07;18.20;99.90
14473;DHT22;7322;50.872;4.386;2023-01-05T08:51:36;18.20;99.90
14473;DHT22;7322;50.872;4.386;2023-01-05T08:54:03;18.20;99.90
14473;DHT22;7322;50.872;4.386;2023-01-05T08:56:32;18.20;99.90
14473;DHT22;7322;50.872;4.386;2023-01-05T08:58:58;18.10;99.90
14473;DHT22;7322;50.872;4.386;2023-01-05T09:01:26;18.20;99.90
14473;DHT22;7322;50.872;4.386;2023-01-05T09:03:54;18.20;99.90
14473;DHT22;7322;50.872;4.386;2023-01-05T09:06:22;18.20;99.90
14473;DHT22;7322;50.872;4.386;2023-01-05T09:08:49;18.20;99.90
14473;DHT22;7322;50.872;4.386;2023-01-05T09:11:17;18.20;99.90
14473;DHT22;7322;50.872;4.386;2023-01-05T09:13:48;18.20;99.90
14473;DHT22;7322;50.872;4.386;2023-01-05T09:16:16;18.20;99.90
14473;DHT22;7322;50.872;4.386;2023-01-05T09:18:44;18.20;99.90
14473;DHT22;7322;50.872;4.386;2023-01-05T09:21:12;18.20;99.90
14473;DHT22;7322;50.872;4.386;2023-01-05T09:23:40;18.20;99.90
14473;DHT22;7322;50.872;4.386;2023-01-05T09:26:09;18.20;99.90
14473;DHT22;7322;50.872;4.386;2023-01-05T09:28:36;18.20;99.90
14473;DHT22;7322;50.872;4.386;2023-01-05T09:31:10;18.20;99.90
14473;DHT22;7322;50.872;4.386;2023-01-05T09:33:38;18.20;99.90
14473;DHT22;7322;50.872;4.386;2023-01-05T09:36:06;18.20;99.90
14473;DHT22;7322;50.872;4.386;2023-01-05T09:38:34;18.20;99.90
14473;DHT22;7322;50.872;4.386;2023-01-05T09:41:03;18.20;99.90
14473;DHT22;7322;50.872;4.386;2023-01-05T09:43:34;18.20;99.90
14473;DHT22;7322;50.872;4.386;2023-01-05T09:46:04;18.20;99.90
14473;DHT22;7322;50.872;4.386;2023-01-05T09:48:37;18.20;99.90
14473;DHT22;7322;50.872;4.386;2023-01-05T09:51:05;18.30;99.90
14473;DHT22;7322;50.872;4.386;2023-01-05T09:53:33;18.30;99.90
14473;DHT22;7322;50.872;4.386;2023-01-05T09:56:00;18.40;99.90
14473;DHT22;7322;50.872;4.386;2023-01-05T09:58:32;18.30;99.90
14473;DHT22;7322;50.872;4.386;2023-01-05T10:01:06;18.40;99.90
14473;DHT22;7322;50.872;4.386;2023-01-05T10:03:40;18.40;99.90
14473;DHT22;7322;50.872;4.386;2023-01-05T10:06:11;18.40;99.90
14473;DHT22;7322;50.872;4.386;2023-01-05T10:08:41;18.40;99.90
14473;DHT22;7322;50.872;4.386;2023-01-05T10:11:12;18.50;99.90
14473;DHT22;7322;50.872;4.386;2023-01-05T10:14:00;18.50;99.90
14473;DHT22;7322;50.872;4.386;2023-01-05T10:16:27;18.50;99.90
14473;DHT22;7322;50.872;4.386;2023-01-05T10:18:56;18.50;99.90
14473;DHT22;7322;50.872;4.386;2023-01-05T10:21:30;18.50;99.90
14473;DHT22;7322;50.872;4.386;2023-01-05T10:24:12;18.50;99.90
14473;DHT22;7322;50.872;4.386;2023-01-05T10:26:51;18.50;99.90
14473;DHT22;7322;50.872;4.386;2023-01-05T10:29:26;18.50;99.90
14473;DHT22;7322;50.872;4.386;2023-01-05T10:31:58;18.50;99.90
14473;DHT22;7322;50.872;4.386;2023-01-05T10:34:45;18.50;99.90
14473;DHT22;7322;50.872;4.386;2023-01-05T10:37:42;18.50;99.90
14473;DHT22;7322;50.872;4.386;2023-01-05T10:40:24;18.50;99.90
14473;DHT22;7322;50.872;4.386;2023-01-05T10:43:09;18.60;99.90
14473;DHT22;7322;50.872;4.386;2023-01-05T10:45:40;18.50;99.90
14473;DHT22;7322;50.872;4.386;2023-01-05T10:48:12;18.40;99.90
14473;DHT22;7322;50.872;4.386;2023-01-05T10:50:42;18.50;99.90
14473;DHT22;7322;50.872;4.386;2023-01-05T10:53:11;18.50;99.90
14473;DHT22;7322;50.872;4.386;2023-01-05T10:55:50;18.50;99.90
14473;DHT22;7322;50.872;4.386;2023-01-05T10:58:26;18.50;99.90
14473;DHT22;7322;50.872;4.386;2023-01-05T11:00:55;18.50;99.90
14473;DHT22;7322;50.872;4.386;2023-01-05T11:03:31;18.40;99.90
14473;DHT22;7322;50.872;4.386;2023-01-05T11:06:02;18.50;99.90
14473;DHT22;7322;50.872;4.386;2023-01-05T11:08:31;18.40;99.90
14473;DHT22;7322;50.872;4.386;2023-01-05T11:11:00;18.50;99.90
14473;DHT22;7322;50.872;4.386;2023-01-05T11:13:32;18.40;99.90
14473;DHT22;7322;50.872;4.386;2023-01-05T11:16:06;18.50;99.90
14473;DHT22;7322;50.872;4.386;2023-01-05T11:18:35;18.50;99.90
14473;DHT22;7322;50.872;4.386;2023-01-05T11:21:09;18.50;99.90
14473;DHT22;7322;50.872;4.386;2023-01-05T11:23:41;18.50;99.90
14473;DHT22;7322;50.872;4.386;2023-01-05T11:26:23;18.50;99.90
14473;DHT22;7322;50.872;4.386;2023-01-05T11:31:46;18.50;99.90
14473;DHT22;7322;50.872;4.386;2023-01-05T11:34:27;18.50;99.90
14473;DHT22;7322;50.872;4.386;2023-01-05T11:36:57;18.50;99.90
14473;DHT22;7322;50.872;4.386;2023-01-05T11:39:29;18.50;99.90
14473;DHT22;7322;50.872;4.386;2023-01-05T11:42:12;18.50;99.90
14473;DHT22;7322;50.872;4.386;2023-01-05T11:44:41;18.50;99.90
14473;DHT22;7322;50.872;4.386;2023-01-05T11:47:09;18.50;99.90
14473;DHT22;7322;50.872;4.386;2023-01-05T11:49:43;18.60;99.90
14473;DHT22;7322;50.872;4.386;2023-01-05T11:52:25;18.60;99.90
14473;DHT22;7322;50.872;4.386;2023-01-05T11:54:52;18.60;99.90
14473;DHT22;7322;50.872;4.386;2023-01-05T11:57:20;18.50;99.90
14473;DHT22;7322;50.872;4.386;2023-01-05T11:59:48;18.50;99.90
14473;DHT22;7322;50.872;4.386;2023-01-05T12:05:24;18.60;99.90
14473;DHT22;7322;50.872;4.386;2023-01-05T12:07:57;18.60;99.90
14473;DHT22;7322;50.872;4.386;2023-01-05T12:10:45;18.60;99.90
14473;DHT22;7322;50.872;4.386;2023-01-05T12:13:38;18.60;99.90
14473;DHT22;7322;50.872;4.386;2023-01-05T12:16:18;18.60;99.90
14473;DHT22;7322;50.872;4.386;2023-01-05T12:19:07;18.60;99.90
14473;DHT22;7322;50.872;4.386;2023-01-05T12:21:43;18.70;99.90
14473;DHT22;7322;50.872;4.386;2023-01-05T12:24:35;18.70;99.90
14473;DHT22;7322;50.872;4.386;2023-01-05T12:27:16;18.70;99.90
14473;DHT22;7322;50.872;4.386;2023-01-05T12:30:12;18.60;99.90
14473;DHT22;7322;50.872;4.386;2023-01-05T12:32:59;18.70;99.90
14473;DHT22;7322;50.872;4.386;2023-01-05T12:38:46;18.70;99.90
14473;DHT22;7322;50.872;4.386;2023-01-05T12:44:47;18.70;99.90
14473;DHT22;7322;50.872;4.386;2023-01-05T12:47:40;18.60;99.90
14473;DHT22;7322;50.872;4.386;2023-01-05T12:50:23;18.70;99.90
14473;DHT22;7322;50.872;4.386;2023-01-05T12:52:55;18.70;99.90
14473;DHT22;7322;50.872;4.386;2023-01-05T12:55:44;18.70;99.90
14473;DHT22;7322;50.872;4.386;2023-01-05T12:58:26;18.70;99.90
14473;DHT22;7322;50.872;4.386;2023-01-05T13:01:04;18.70;99.90
14473;DHT22;7322;50.872;4.386;2023-01-05T13:03:40;18.70;99.90
14473;DHT22;7322;50.872;4.386;2023-01-05T13:06:21;18.80;99.90
14473;DHT22;7322;50.872;4.386;2023-01-05T13:08:52;18.80;99.90
14473;DHT22;7322;50.872;4.386;2023-01-05T13:11:30;18.80;99.90
14473;DHT22;7322;50.872;4.386;2023-01-05T13:14:04;18.80;99.90
14473;DHT22;7322;50.872;4.386;2023-01-05T13:16:38;18.80;99.90
14473;DHT22;7322;50.872;4.386;2023-01-05T13:19:14;18.80;99.90
14473;DHT22;7322;50.872;4.386;2023-01-05T13:21:52;18.90;99.90
14473;DHT22;7322;50.872;4.386;2023-01-05T13:24:31;18.90;99.90
14473;DHT22;7322;50.872;4.386;2023-01-05T13:27:02;18.90;99.90
14473;DHT22;7322;50.872;4.386;2023-01-05T13:29:33;18.90;99.90
14473;DHT22;7322;50.872;4.386;2023-01-05T13:32:28;18.90;99.90
14473;DHT22;7322;50.872;4.386;2023-01-05T13:35:17;19.00;99.90
14473;DHT22;7322;50.872;4.386;2023-01-05T13:44:36;18.90;99.90
14473;DHT22;7322;50.872;4.386;2023-01-05T13:47:20;18.90;99.90
14473;DHT22;7322;50.872;4.386;2023-01-05T13:50:07;18.90;99.90
14473;DHT22;7322;50.872;4.386;2023-01-05T13:52:54;18.80;99.90
14473;DHT22;7322;50.872;4.386;2023-01-05T13:55:24;18.80;99.90
14473;DHT22;7322;50.872;4.386;2023-01-05T13:57:54;18.70;99.90
14473;DHT22;7322;50.872;4.386;2023-01-05T14:00:24;18.70;99.90
14473;DHT22;7322;50.872;4.386;2023-01-05T14:03:00;18.70;99.90
14473;DHT22;7322;50.872;4.386;2023-01-05T14:05:38;18.70;99.90
14473;DHT22;7322;50.872;4.386;2023-01-05T14:08:18;18.70;99.90
14473;DHT22;7322;50.872;4.386;2023-01-05T14:11:07;18.70;99.90
14473;DHT22;7322;50.872;4.386;2023-01-05T14:13:42;18.70;99.90
14473;DHT22;7322;50.872;4.386;2023-01-05T14:16:44;18.70;99.90
14473;DHT22;7322;50.872;4.386;2023-01-05T14:22:32;18.60;99.90
14473;DHT22;7322;50.872;4.386;2023-01-05T14:28:20;18.60;99.90
14473;DHT22;7322;50.872;4.386;2023-01-05T14:30:49;18.50;99.90
14473;DHT22;7322;50.872;4.386;2023-01-05T14:33:17;18.50;99.90
14473;DHT22;7322;50.872;4.386;2023-01-05T14:35:46;18.50;99.90
14473;DHT22;7322;50.872;4.386;2023-01-05T14:38:18;18.50;99.90
14473;DHT22;7322;50.872;4.386;2023-01-05T14:40:49;18.50;99.90
14473;DHT22;7322;50.872;4.386;2023-01-05T14:43:22;18.50;99.90
14473;DHT22;7322;50.872;4.386;2023-01-05T14:45:59;18.50;99.90
14473;DHT22;7322;50.872;4.386;2023-01-05T14:48:30;18.50;99.90
14473;DHT22;7322;50.872;4.386;2023-01-05T14:51:19;18.50;99.90
14473;DHT22;7322;50.872;4.386;2023-01-05T14:53:51;18.50;99.90
14473;DHT22;7322;50.872;4.386;2023-01-05T14:56:22;18.50;99.90
14473;DHT22;7322;50.872;4.386;2023-01-05T14:59:10;18.40;99.90
14473;DHT22;7322;50.872;4.386;2023-01-05T15:01:46;18.40;99.90
14473;DHT22;7322;50.872;4.386;2023-01-05T15:04:16;18.40;99.90
14473;DHT22;7322;50.872;4.386;2023-01-05T15:07:01;18.40;99.90
14473;DHT22;7322;50.872;4.386;2023-01-05T15:09:43;18.40;99.90
14473;DHT22;7322;50.872;4.386;2023-01-05T15:12:33;18.40;99.90
14473;DHT22;7322;50.872;4.386;2023-01-05T15:15:21;18.40;99.90
14473;DHT22;7322;50.872;4.386;2023-01-05T15:18:02;18.40;99.90
14473;DHT22;7322;50.872;4.386;2023-01-05T15:21:07;18.40;99.90
14473;DHT22;7322;50.872;4.386;2023-01-05T15:23:58;18.40;99.90
14473;DHT22;7322;50.872;4.386;2023-01-05T15:32:26;18.30;99.90
14473;DHT22;7322;50.872;4.386;2023-01-05T15:35:00;18.20;99.90
14473;DHT22;7322;50.872;4.386;2023-01-05T15:37:31;18.30;99.90
14473;DHT22;7322;50.872;4.386;2023-01-05T15:39:59;18.20;99.90
14473;DHT22;7322;50.872;4.386;2023-01-05T15:42:36;18.20;99.90
14473;DHT22;7322;50.872;4.386;2023-01-05T15:45:06;18.20;99.90
14473;DHT22;7322;50.872;4.386;2023-01-05T15:47:37;18.20;99.90
14473;DHT22;7322;50.872;4.386;2023-01-05T15:50:06;18.20;99.90
14473;DHT22;7322;50.872;4.386;2023-01-05T15:52:51;18.20;99.90
14473;DHT22;7322;50.872;4.386;2023-01-05T15:55:18;18.20;99.90
14473;DHT22;7322;50.872;4.386;2023-01-05T15:57:53;18.20;99.90
14473;DHT22;7322;50.872;4.386;2023-01-05T16:00:23;18.20;99.90
14473;DHT22;7322;50.872;4.386;2023-01-05T16:02:50;18.20;99.90
14473;DHT22;7322;50.872;4.386;2023-01-05T16:05:19;18.20;99.90
14473;DHT22;7322;50.872;4.386;2023-01-05T16:07:50;18.20;99.90
14473;DHT22;7322;50.872;4.386;2023-01-05T16:10:21;18.20;99.90
14473;DHT22;7322;50.872;4.386;2023-01-05T16:13:01;18.20;99.90
14473;DHT22;7322;50.872;4.386;2023-01-05T16:15:31;18.20;99.90
14473;DHT22;7322;50.872;4.386;2023-01-05T16:18:00;18.20;99.90
14473;DHT22;7322;50.872;4.386;2023-01-05T16:20:27;18.20;99.90
14473;DHT22;7322;50.872;4.386;2023-01-05T16:22:58;18.20;99.90
14473;DHT22;7322;50.872;4.386;2023-01-05T16:25:29;18.20;99.90
14473;DHT22;7322;50.872;4.386;2023-01-05T16:28:01;18.20;99.90
14473;DHT22;7322;50.872;4.386;2023-01-05T16:30:31;18.20;99.90
14473;DHT22;7322;50.872;4.386;2023-01-05T16:33:00;18.20;99.90
14473;DHT22;7322;50.872;4.386;2023-01-05T16:35:41;18.10;99.90
14473;DHT22;7322;50.872;4.386;2023-01-05T16:38:21;18.10;99.90
14473;DHT22;7322;50.872;4.386;2023-01-05T16:41:05;18.10;99.90
14473;DHT22;7322;50.872;4.386;2023-01-05T16:43:40;18.10;99.90
14473;DHT22;7322;50.872;4.386;2023-01-05T16:46:26;18.10;99.90
14473;DHT22;7322;50.872;4.386;2023-01-05T16:48:57;18.10;99.90
14473;DHT22;7322;50.872;4.386;2023-01-05T16:51:37;18.10;99.90